sensor_id;sensor_type;location;lat;lon;timestamp;pressure;altitude;pressure_sealevel;temperature;humidity
48964;BME280;34776;48.180;16.420;2023-04-27T00:00:23;100089.84;;;9.41;44.59
48964;BME280;34776;48.180;16.420;2023-04-27T00:02:49;100085.34;;;9.43;44.58
48964;BME280;34776;48.180;16.420;2023-04-27T00:05:14;100081.72;;;9.44;44.59
48964;BME280;34776;48.180;16.420;2023-04-27T00:07:39;100081.63;;;9.47;44.55
48964;BME280;34776;48.180;16.420;2023-04-27T00:10:06;100080.63;;;9.50;44.85
48964;BME280;34776;48.180;16.420;2023-04-27T00:12:32;100075.31;;;9.50;44.88
48964;BME280;34776;48.180;16.420;2023-04-27T00:14:59;100080.56;;;9.51;44.87
48964;BME280;34776;48.180;16.420;2023-04-27T00:17:24;100082.34;;;9.51;44.87
48964;BME280;34776;48.180;16.420;2023-04-27T00:19:50;100076.06;;;9.53;45.04
48964;BME280;34776;48.180;16.420;2023-04-27T00:22:16;100081.38;;;9.53;44.68
48964;BME280;34776;48.180;16.420;2023-04-27T00:24:41;100079.50;;;9.55;44.50
48964;BME280;34776;48.180;16.420;2023-04-27T00:27:07;100072.47;;;9.54;44.37
48964;BME280;34776;48.180;16.420;2023-04-27T00:29:32;100072.47;;;9.54;44.26
48964;BME280;34776;48.180;16.420;2023-04-27T00:31:58;100074.19;;;9.55;44.14
48964;BME280;34776;48.180;16.420;2023-04-27T00:34:23;100078.63;;;9.55;43.80
48964;BME280;34776;48.180;16.420;2023-04-27T00:36:48;100070.75;;;9.53;44.00
48964;BME280;34776;48.180;16.420;2023-04-27T00:39:14;100069.88;;;9.53;43.88
48964;BME280;34776;48.180;16.420;2023-04-27T00:41:39;100074.31;;;9.52;43.88
48964;BME280;34776;48.180;16.420;2023-04-27T00:44:05;100066.56;;;9.48;44.02
48964;BME280;34776;48.180;16.420;2023-04-27T00:46:31;100073.66;;;9.47;44.05
48964;BME280;34776;48.180;16.420;2023-04-27T00:48:57;100068.47;;;9.44;44.10
48964;BME280;34776;48.180;16.420;2023-04-27T00:51:23;100070.47;;;9.39;44.21
48964;BME280;34776;48.180;16.420;2023-04-27T00:53:52;100061.84;;;9.34;44.40
48964;BME280;34776;48.180;16.420;2023-04-27T00:56:18;100060.31;;;9.28;44.46
48964;BME280;34776;48.180;16.420;2023-04-27T00:58:43;100064.88;;;9.25;44.54
48964;BME280;34776;48.180;16.420;2023-04-27T01:01:09;100067.66;;;9.22;44.59
48964;BME280;34776;48.180;16.420;2023-04-27T01:03:35;100068.59;;;9.21;44.82
48964;BME280;34776;48.180;16.420;2023-04-27T01:06:00;100063.28;;;9.21;44.82
48964;BME280;34776;48.180;16.420;2023-04-27T01:08:27;100068.72;;;9.18;44.81
48964;BME280;34776;48.180;16.420;2023-04-27T01:10:52;100058.22;;;9.14;44.85
48964;BME280;34776;48.180;16.420;2023-04-27T01:13:18;100068.84;;;9.14;44.92
48964;BME280;34776;48.180;16.420;2023-04-27T01:15:43;100058.28;;;9.13;45.15
48964;BME280;34776;48.180;16.420;2023-04-27T01:18:08;100062.75;;;9.12;45.26
48964;BME280;34776;48.180;16.420;2023-04-27T01:20:34;100065.53;;;9.09;45.31
48964;BME280;34776;48.180;16.420;2023-04-27T01:23:00;100059.34;;;9.09;45.31
48964;BME280;34776;48.180;16.420;2023-04-27T01:25:25;100067.38;;;9.07;45.91
48964;BME280;34776;48.180;16.420;2023-04-27T01:27:51;100063.94;;;9.05;45.86
48964;BME280;34776;48.180;16.420;2023-04-27T01:30:17;100077.34;;;9.01;45.95
48964;BME280;34776;48.180;16.420;2023-04-27T01:32:43;100070.53;;;8.95;46.32
48964;BME280;34776;48.180;16.420;2023-04-27T01:35:08;100076.88;;;8.91;46.16
48964;BME280;34776;48.180;16.420;2023-04-27T01:37:34;100078.81;;;8.86;46.48
48964;BME280;34776;48.180;16.420;2023-04-27T01:40:00;100077.22;;;8.82;46.48
48964;BME280;34776;48.180;16.420;2023-04-27T01:42:25;100079.97;;;8.80;46.60
48964;BME280;34776;48.180;16.420;2023-04-27T01:44:50;100078.28;;;8.78;46.65
48964;BME280;34776;48.180;16.420;2023-04-27T01:47:16;100073.91;;;8.77;46.63
48964;BME280;34776;48.180;16.420;2023-04-27T01:49:42;100068.75;;;8.73;46.56
48964;BME280;34776;48.180;16.420;2023-04-27T01:52:07;100077.84;;;8.66;46.73
48964;BME280;34776;48.180;16.420;2023-04-27T01:54:33;100077.22;;;8.60;47.10
48964;BME280;34776;48.180;16.420;2023-04-27T01:56:59;100080.91;;;8.56;47.13
48964;BME280;34776;48.180;16.420;2023-04-27T01:59:25;100078.53;;;8.48;47.32
48964;BME280;34776;48.180;16.420;2023-04-27T02:01:51;100076.94;;;8.44;47.32
48964;BME280;34776;48.180;16.420;2023-04-27T02:04:16;100084.19;;;8.39;47.39
48964;BME280;34776;48.180;16.420;2023-04-27T02:06:41;100087.00;;;8.34;47.58
48964;BME280;34776;48.180;16.420;2023-04-27T02:09:07;100077.50;;;8.28;47.56
48964;BME280;34776;48.180;16.420;2023-04-27T02:11:32;100085.63;;;8.24;47.47
48964;BME280;34776;48.180;16.420;2023-04-27T02:13:57;100083.19;;;8.18;47.58
48964;BME280;34776;48.180;16.420;2023-04-27T02:16:23;100091.41;;;8.10;47.80
48964;BME280;34776;48.180;16.420;2023-04-27T02:18:48;100096.03;;;8.05;47.85
48964;BME280;34776;48.180;16.420;2023-04-27T02:21:13;100101.50;;;8.00;47.79
48964;BME280;34776;48.180;16.420;2023-04-27T02:23:39;100093.78;;;7.94;47.90
48964;BME280;34776;48.180;16.420;2023-04-27T02:26:04;100093.00;;;7.90;48.06
48964;BME280;34776;48.180;16.420;2023-04-27T02:28:30;100100.19;;;7.87;48.06
48964;BME280;34776;48.180;16.420;2023-04-27T02:30:56;100100.31;;;7.84;48.21
48964;BME280;34776;48.180;16.420;2023-04-27T02:33:22;100092.53;;;7.79;48.37
48964;BME280;34776;48.180;16.420;2023-04-27T02:35:47;100102.41;;;7.74;48.36
48964;BME280;34776;48.180;16.420;2023-04-27T02:38:12;100099.91;;;7.69;48.43
48964;BME280;34776;48.180;16.420;2023-04-27T02:40:38;100101.78;;;7.66;48.41
48964;BME280;34776;48.180;16.420;2023-04-27T02:43:03;100098.47;;;7.61;48.70
48964;BME280;34776;48.180;16.420;2023-04-27T02:45:28;100095.91;;;7.58;48.81
48964;BME280;34776;48.180;16.420;2023-04-27T02:47:54;100096.06;;;7.53;48.96
48964;BME280;34776;48.180;16.420;2023-04-27T02:50:19;100099.78;;;7.47;49.07
48964;BME280;34776;48.180;16.420;2023-04-27T02:52:44;100102.53;;;7.44;49.32
48964;BME280;34776;48.180;16.420;2023-04-27T02:55:10;100100.03;;;7.41;49.23
48964;BME280;34776;48.180;16.420;2023-04-27T02:57:35;100109.81;;;7.38;49.40
48964;BME280;34776;48.180;16.420;2023-04-27T03:00:01;100108.16;;;7.35;49.47
48964;BME280;34776;48.180;16.420;2023-04-27T03:02:28;100110.78;;;7.35;49.72
48964;BME280;34776;48.180;16.420;2023-04-27T03:04:53;100104.56;;;7.36;49.61
48964;BME280;34776;48.180;16.420;2023-04-27T03:07:20;100104.56;;;7.36;49.86
48964;BME280;34776;48.180;16.420;2023-04-27T03:09:45;100114.25;;;7.37;50.02
48964;BME280;34776;48.180;16.420;2023-04-27T03:12:11;100112.41;;;7.39;50.07
48964;BME280;34776;48.180;16.420;2023-04-27T03:14:36;100115.88;;;7.41;50.04
48964;BME280;34776;48.180;16.420;2023-04-27T03:17:01;100114.13;;;7.40;50.03
48964;BME280;34776;48.180;16.420;2023-04-27T03:19:27;100112.41;;;7.39;50.19
48964;BME280;34776;48.180;16.420;2023-04-27T03:21:52;100121.25;;;7.38;50.46
48964;BME280;34776;48.180;16.420;2023-04-27T03:24:18;100121.38;;;7.35;50.35
48964;BME280;34776;48.180;16.420;2023-04-27T03:26:43;100119.75;;;7.31;50.62
48964;BME280;34776;48.180;16.420;2023-04-27T03:29:08;100112.06;;;7.23;50.57
48964;BME280;34776;48.180;16.420;2023-04-27T03:31:34;100105.19;;;7.18;50.42
48964;BME280;34776;48.180;16.420;2023-04-27T03:33:59;100108.84;;;7.14;50.46
48964;BME280;34776;48.180;16.420;2023-04-27T03:36:25;100112.56;;;7.08;51.03
48964;BME280;34776;48.180;16.420;2023-04-27T03:38:51;100118.78;;;7.05;51.02
48964;BME280;34776;48.180;16.420;2023-04-27T03:41:16;100115.31;;;7.03;50.93
48964;BME280;34776;48.180;16.420;2023-04-27T03:43:42;100116.25;;;7.02;51.37
48964;BME280;34776;48.180;16.420;2023-04-27T03:46:07;100117.16;;;7.01;51.50
48964;BME280;34776;48.180;16.420;2023-04-27T03:48:33;100120.72;;;7.00;51.84
48964;BME280;34776;48.180;16.420;2023-04-27T03:50:59;100119.09;;;6.96;52.07
48964;BME280;34776;48.180;16.420;2023-04-27T03:53:25;100118.19;;;6.97;52.25
48964;BME280;34776;48.180;16.420;2023-04-27T03:55:51;100132.25;;;6.98;52.13
48964;BME280;34776;48.180;16.420;2023-04-27T03:58:16;100133.97;;;6.99;52.38
48964;BME280;34776;48.180;16.420;2023-04-27T04:00:42;100138.41;;;6.98;52.58
48964;BME280;34776;48.180;16.420;2023-04-27T04:03:07;100134.03;;;6.97;52.98
48964;BME280;34776;48.180;16.420;2023-04-27T04:05:33;100127.72;;;7.01;53.28
48964;BME280;34776;48.180;16.420;2023-04-27T04:07:58;100138.97;;;7.08;53.33
48964;BME280;34776;48.180;16.420;2023-04-27T04:10:24;100132.53;;;7.17;53.38
48964;BME280;34776;48.180;16.420;2023-04-27T04:12:50;100136.69;;;7.24;53.25
48964;BME280;34776;48.180;16.420;2023-04-27T04:15:16;100136.47;;;7.31;53.68
48964;BME280;34776;48.180;16.420;2023-04-27T04:17:41;100144.97;;;7.41;53.45
48964;BME280;34776;48.180;16.420;2023-04-27T04:20:07;100142.00;;;7.50;53.50
48964;BME280;34776;48.180;16.420;2023-04-27T04:22:36;100140.06;;;7.56;53.83
48964;BME280;34776;48.180;16.420;2023-04-27T04:25:02;100139.84;;;7.62;53.84
48964;BME280;34776;48.180;16.420;2023-04-27T04:27:27;100144.94;;;7.68;53.88
48964;BME280;34776;48.180;16.420;2023-04-27T04:29:53;100137.72;;;7.73;53.91
48964;BME280;34776;48.180;16.420;2023-04-27T04:32:19;100148.09;;;7.79;54.01
48964;BME280;34776;48.180;16.420;2023-04-27T04:34:50;100151.44;;;7.84;54.33
48964;BME280;34776;48.180;16.420;2023-04-27T04:37:15;100146.72;;;7.92;54.28
48964;BME280;34776;48.180;16.420;2023-04-27T04:39:43;100143.66;;;8.05;54.22
48964;BME280;34776;48.180;16.420;2023-04-27T04:42:08;100154.63;;;8.19;54.16
48964;BME280;34776;48.180;16.420;2023-04-27T04:44:33;100155.75;;;8.36;54.22
48964;BME280;34776;48.180;16.420;2023-04-27T04:46:59;100149.81;;;8.54;53.99
48964;BME280;34776;48.180;16.420;2023-04-27T04:49:24;100148.75;;;8.82;53.92
48964;BME280;34776;48.180;16.420;2023-04-27T04:51:50;100145.09;;;9.08;53.49
48964;BME280;34776;48.180;16.420;2023-04-27T04:54:15;100142.19;;;9.36;53.17
48964;BME280;34776;48.180;16.420;2023-04-27T04:56:41;100140.19;;;9.63;52.53
48964;BME280;34776;48.180;16.420;2023-04-27T04:59:06;100148.91;;;9.87;52.03
48964;BME280;34776;48.180;16.420;2023-04-27T05:01:32;100144.34;;;10.10;51.44
48964;BME280;34776;48.180;16.420;2023-04-27T05:03:57;100149.41;;;10.36;50.87
48964;BME280;34776;48.180;16.420;2023-04-27T05:06:23;100151.09;;;10.58;50.29
48964;BME280;34776;48.180;16.420;2023-04-27T05:08:48;100152.91;;;10.76;49.83
48964;BME280;34776;48.180;16.420;2023-04-27T05:11:14;100149.09;;;11.01;49.76
48964;BME280;34776;48.180;16.420;2023-04-27T05:13:39;100150.91;;;11.37;49.04
48964;BME280;34776;48.180;16.420;2023-04-27T05:16:05;100149.22;;;11.53;48.72
48964;BME280;34776;48.180;16.420;2023-04-27T05:18:31;100149.53;;;11.65;48.65
48964;BME280;34776;48.180;16.420;2023-04-27T05:20:57;100157.44;;;11.84;47.98
48964;BME280;34776;48.180;16.420;2023-04-27T05:23:22;100158.34;;;12.02;47.47
48964;BME280;34776;48.180;16.420;2023-04-27T05:25:47;100163.25;;;12.09;47.34
48964;BME280;34776;48.180;16.420;2023-04-27T05:28:13;100164.91;;;12.12;46.95
48964;BME280;34776;48.180;16.420;2023-04-27T05:30:38;100162.94;;;12.15;46.85
48964;BME280;34776;48.180;16.420;2023-04-27T05:33:04;100161.38;;;12.11;46.94
48964;BME280;34776;48.180;16.420;2023-04-27T05:35:30;100159.63;;;12.28;46.71
48964;BME280;34776;48.180;16.420;2023-04-27T05:37:56;100161.31;;;12.46;46.30
48964;BME280;34776;48.180;16.420;2023-04-27T05:40:22;100158.50;;;12.65;45.70
48964;BME280;34776;48.180;16.420;2023-04-27T05:42:47;100166.97;;;12.73;45.76
48964;BME280;34776;48.180;16.420;2023-04-27T05:45:13;100163.78;;;12.83;45.21
48964;BME280;34776;48.180;16.420;2023-04-27T05:47:38;100167.72;;;12.75;45.46
48964;BME280;34776;48.180;16.420;2023-04-27T05:50:04;100171.84;;;12.65;45.54
48964;BME280;34776;48.180;16.420;2023-04-27T05:52:30;100175.16;;;12.53;45.16
48964;BME280;34776;48.180;16.420;2023-04-27T05:54:56;100180.50;;;12.53;44.93
48964;BME280;34776;48.180;16.420;2023-04-27T05:57:25;100180.69;;;12.66;44.51
48964;BME280;34776;48.180;16.420;2023-04-27T06:02:53;100182.13;;;13.20;42.72
48964;BME280;34776;48.180;16.420;2023-04-27T06:05:18;100179.56;;;13.35;42.02
48964;BME280;34776;48.180;16.420;2023-04-27T06:07:44;100183.88;;;13.37;41.57
48964;BME280;34776;48.180;16.420;2023-04-27T06:10:10;100189.31;;;13.36;41.53
48964;BME280;34776;48.180;16.420;2023-04-27T06:12:36;100188.75;;;13.61;40.91
48964;BME280;34776;48.180;16.420;2023-04-27T06:15:01;100195.66;;;13.95;40.72
48964;BME280;34776;48.180;16.420;2023-04-27T06:17:36;100190.25;;;14.11;40.29
48964;BME280;34776;48.180;16.420;2023-04-27T06:20:03;100193.81;;;14.26;40.08
48964;BME280;34776;48.180;16.420;2023-04-27T06:22:32;100196.53;;;14.40;39.69
48964;BME280;34776;48.180;16.420;2023-04-27T06:24:58;100189.81;;;14.48;39.92
48964;BME280;34776;48.180;16.420;2023-04-27T06:27:23;100196.28;;;14.59;39.43
48964;BME280;34776;48.180;16.420;2023-04-27T06:29:48;100195.59;;;14.85;39.35
48964;BME280;34776;48.180;16.420;2023-04-27T06:32:14;100190.09;;;15.83;38.23
48964;BME280;34776;48.180;16.420;2023-04-27T06:34:39;100187.28;;;17.87;35.65
48964;BME280;34776;48.180;16.420;2023-04-27T06:37:04;100185.94;;;19.41;33.40
48964;BME280;34776;48.180;16.420;2023-04-27T06:39:30;100188.81;;;19.60;33.30
48964;BME280;34776;48.180;16.420;2023-04-27T06:41:56;100188.34;;;19.00;33.62
48964;BME280;34776;48.180;16.420;2023-04-27T06:44:22;100193.13;;;18.97;33.81
48964;BME280;34776;48.180;16.420;2023-04-27T06:46:47;100194.03;;;19.30;33.31
48964;BME280;34776;48.180;16.420;2023-04-27T06:49:13;100198.25;;;19.55;31.83
48964;BME280;34776;48.180;16.420;2023-04-27T06:51:38;100192.84;;;19.77;31.87
48964;BME280;34776;48.180;16.420;2023-04-27T06:54:04;100197.81;;;19.93;31.00
48964;BME280;34776;48.180;16.420;2023-04-27T06:56:30;100200.84;;;20.21;30.37
48964;BME280;34776;48.180;16.420;2023-04-27T06:58:55;100197.50;;;20.28;29.97
48964;BME280;34776;48.180;16.420;2023-04-27T07:01:20;100189.50;;;19.85;30.15
48964;BME280;34776;48.180;16.420;2023-04-27T07:03:46;100191.47;;;19.83;30.37
48964;BME280;34776;48.180;16.420;2023-04-27T07:06:11;100195.84;;;20.37;29.67
48964;BME280;34776;48.180;16.420;2023-04-27T07:08:36;100190.19;;;21.02;29.06
48964;BME280;34776;48.180;16.420;2023-04-27T07:11:02;100185.69;;;21.02;28.57
48964;BME280;34776;48.180;16.420;2023-04-27T07:13:28;100182.34;;;21.29;28.25
48964;BME280;34776;48.180;16.420;2023-04-27T07:18:26;100180.63;;;22.65;26.58
48964;BME280;34776;48.180;16.420;2023-04-27T07:20:53;100173.97;;;23.88;25.40
48964;BME280;34776;48.180;16.420;2023-04-27T07:23:18;100174.66;;;24.34;24.58
48964;BME280;34776;48.180;16.420;2023-04-27T07:25:44;100178.25;;;23.45;24.46
48964;BME280;34776;48.180;16.420;2023-04-27T07:28:10;100172.81;;;22.89;25.53
48964;BME280;34776;48.180;16.420;2023-04-27T07:30:37;100169.06;;;23.10;25.34
48964;BME280;34776;48.180;16.420;2023-04-27T07:33:02;100174.16;;;23.13;25.29
48964;BME280;34776;48.180;16.420;2023-04-27T07:35:28;100173.47;;;23.11;25.21
48964;BME280;34776;48.180;16.420;2023-04-27T07:40:29;100171.03;;;22.14;25.73
48964;BME280;34776;48.180;16.420;2023-04-27T07:42:55;100179.16;;;21.75;25.70
48964;BME280;34776;48.180;16.420;2023-04-27T07:45:20;100174.41;;;21.38;25.67
48964;BME280;34776;48.180;16.420;2023-04-27T07:50:21;100182.16;;;20.29;26.34
48964;BME280;34776;48.180;16.420;2023-04-27T07:52:48;100186.63;;;20.19;26.93
48964;BME280;34776;48.180;16.420;2023-04-27T07:55:14;100190.66;;;20.45;26.80
48964;BME280;34776;48.180;16.420;2023-04-27T07:57:40;100189.47;;;20.59;26.14
48964;BME280;34776;48.180;16.420;2023-04-27T08:00:06;100181.84;;;20.74;25.74
48964;BME280;34776;48.180;16.420;2023-04-27T08:02:33;100180.97;;;20.22;26.10
48964;BME280;34776;48.180;16.420;2023-04-27T08:04:58;100183.31;;;19.94;26.86
48964;BME280;34776;48.180;16.420;2023-04-27T08:07:24;100190.50;;;20.05;26.80
48964;BME280;34776;48.180;16.420;2023-04-27T08:09:50;100184.66;;;19.67;26.75
48964;BME280;34776;48.180;16.420;2023-04-27T08:14:51;100187.63;;;19.53;26.48
48964;BME280;34776;48.180;16.420;2023-04-27T08:17:17;100188.16;;;19.36;26.46
48964;BME280;34776;48.180;16.420;2023-04-27T08:19:43;100187.13;;;19.48;26.40
48964;BME280;34776;48.180;16.420;2023-04-27T08:22:08;100191.97;;;19.77;26.36
48964;BME280;34776;48.180;16.420;2023-04-27T08:24:34;100192.34;;;20.04;26.28
48964;BME280;34776;48.180;16.420;2023-04-27T08:26:59;100191.31;;;20.38;26.03
48964;BME280;34776;48.180;16.420;2023-04-27T08:29:25;100188.09;;;20.23;25.87
48964;BME280;34776;48.180;16.420;2023-04-27T08:31:50;100189.00;;;19.91;26.02
48964;BME280;34776;48.180;16.420;2023-04-27T08:34:16;100185.97;;;20.05;26.33
48964;BME280;34776;48.180;16.420;2023-04-27T08:36:42;100192.47;;;20.45;25.55
48964;BME280;34776;48.180;16.420;2023-04-27T08:39:07;100191.03;;;20.62;25.35
48964;BME280;34776;48.180;16.420;2023-04-27T08:41:33;100187.03;;;20.87;25.11
48964;BME280;34776;48.180;16.420;2023-04-27T08:43:58;100181.47;;;21.19;24.87
48964;BME280;34776;48.180;16.420;2023-04-27T08:46:24;100185.25;;;21.47;23.58
48964;BME280;34776;48.180;16.420;2023-04-27T08:48:52;100184.44;;;21.16;23.63
48964;BME280;34776;48.180;16.420;2023-04-27T08:51:18;100188.19;;;21.35;23.53
48964;BME280;34776;48.180;16.420;2023-04-27T08:53:47;100188.63;;;21.40;22.90
48964;BME280;34776;48.180;16.420;2023-04-27T08:56:13;100188.22;;;21.54;22.98
48964;BME280;34776;48.180;16.420;2023-04-27T08:58:39;100188.94;;;22.34;22.78
48964;BME280;34776;48.180;16.420;2023-04-27T09:01:05;100183.00;;;23.15;21.72
48964;BME280;34776;48.180;16.420;2023-04-27T09:03:34;100187.16;;;23.37;21.03
48964;BME280;34776;48.180;16.420;2023-04-27T09:06:01;100186.00;;;23.58;20.90
48964;BME280;34776;48.180;16.420;2023-04-27T09:08:27;100181.97;;;23.44;21.21
48964;BME280;34776;48.180;16.420;2023-04-27T09:10:52;100173.75;;;23.81;21.22
48964;BME280;34776;48.180;16.420;2023-04-27T09:13:19;100182.41;;;24.29;20.89
48964;BME280;34776;48.180;16.420;2023-04-27T09:15:49;100173.34;;;24.64;20.48
48964;BME280;34776;48.180;16.420;2023-04-27T09:18:19;100177.25;;;24.62;20.58
48964;BME280;34776;48.180;16.420;2023-04-27T09:20:46;100176.50;;;23.89;20.88
48964;BME280;34776;48.180;16.420;2023-04-27T09:23:29;100177.88;;;23.58;20.07
48964;BME280;34776;48.180;16.420;2023-04-27T09:26:01;100171.34;;;23.68;21.84
48964;BME280;34776;48.180;16.420;2023-04-27T09:28:29;100168.19;;;23.73;21.47
48964;BME280;34776;48.180;16.420;2023-04-27T09:30:59;100174.63;;;23.72;21.26
48964;BME280;34776;48.180;16.420;2023-04-27T09:33:26;100180.81;;;23.64;21.29
48964;BME280;34776;48.180;16.420;2023-04-27T09:35:52;100175.84;;;23.42;21.25
48964;BME280;34776;48.180;16.420;2023-04-27T09:38:19;100175.63;;;22.98;21.78
48964;BME280;34776;48.180;16.420;2023-04-27T09:40:45;100167.44;;;22.80;22.22
48964;BME280;34776;48.180;16.420;2023-04-27T09:43:11;100169.41;;;22.87;21.95
48964;BME280;34776;48.180;16.420;2023-04-27T09:45:37;100173.91;;;22.97;21.73
48964;BME280;34776;48.180;16.420;2023-04-27T09:48:04;100173.34;;;23.03;21.69
48964;BME280;34776;48.180;16.420;2023-04-27T09:50:34;100163.31;;;23.13;21.19
48964;BME280;34776;48.180;16.420;2023-04-27T09:53:01;100167.34;;;22.99;21.75
48964;BME280;34776;48.180;16.420;2023-04-27T10:01:38;100160.31;;;22.32;21.02
48964;BME280;34776;48.180;16.420;2023-04-27T10:04:15;100160.09;;;21.86;22.20
48964;BME280;34776;48.180;16.420;2023-04-27T10:07:04;100161.75;;;21.48;22.31
48964;BME280;34776;48.180;16.420;2023-04-27T10:24:48;100135.75;;;20.97;22.94
48964;BME280;34776;48.180;16.420;2023-04-27T10:27:16;100134.72;;;20.88;22.60
48964;BME280;34776;48.180;16.420;2023-04-27T10:29:45;100142.78;;;20.47;22.92
48964;BME280;34776;48.180;16.420;2023-04-27T10:37:17;100119.38;;;20.27;23.23
48964;BME280;34776;48.180;16.420;2023-04-27T10:39:45;100129.97;;;20.19;23.95
48964;BME280;34776;48.180;16.420;2023-04-27T10:44:53;100123.06;;;20.87;23.18
48964;BME280;34776;48.180;16.420;2023-04-27T10:47:20;100125.94;;;20.96;23.33
48964;BME280;34776;48.180;16.420;2023-04-27T10:52:19;100107.22;;;21.23;23.64
48964;BME280;34776;48.180;16.420;2023-04-27T10:54:45;100112.41;;;21.65;22.64
48964;BME280;34776;48.180;16.420;2023-04-27T10:57:11;100109.16;;;21.02;22.88
48964;BME280;34776;48.180;16.420;2023-04-27T10:59:48;100115.81;;;20.26;23.40
48964;BME280;34776;48.180;16.420;2023-04-27T11:02:14;100109.69;;;20.24;24.23
48964;BME280;34776;48.180;16.420;2023-04-27T11:04:40;100117.53;;;20.06;23.50
48964;BME280;34776;48.180;16.420;2023-04-27T11:07:07;100109.03;;;19.37;24.39
48964;BME280;34776;48.180;16.420;2023-04-27T11:09:37;100119.59;;;19.29;24.63
48964;BME280;34776;48.180;16.420;2023-04-27T11:17:14;100115.91;;;19.62;24.54
48964;BME280;34776;48.180;16.420;2023-04-27T11:19:46;100118.13;;;19.24;24.64
48964;BME280;34776;48.180;16.420;2023-04-27T11:27:35;100113.56;;;18.81;24.33
48964;BME280;34776;48.180;16.420;2023-04-27T11:30:01;100114.75;;;19.00;24.63
48964;BME280;34776;48.180;16.420;2023-04-27T11:32:27;100118.84;;;19.26;24.76
48964;BME280;34776;48.180;16.420;2023-04-27T11:34:52;100121.78;;;19.35;24.73
48964;BME280;34776;48.180;16.420;2023-04-27T11:37:23;100119.25;;;19.11;24.78
48964;BME280;34776;48.180;16.420;2023-04-27T11:39:49;100119.63;;;19.06;25.13
48964;BME280;34776;48.180;16.420;2023-04-27T11:42:23;100109.13;;;18.92;24.99
48964;BME280;34776;48.180;16.420;2023-04-27T11:47:17;100107.31;;;18.81;25.38
48964;BME280;34776;48.180;16.420;2023-04-27T11:49:57;100103.50;;;18.72;24.92
48964;BME280;34776;48.180;16.420;2023-04-27T11:52:41;100106.94;;;18.74;25.59
48964;BME280;34776;48.180;16.420;2023-04-27T11:55:11;100109.47;;;19.10;25.84
48964;BME280;34776;48.180;16.420;2023-04-27T11:57:40;100105.59;;;19.67;25.43
48964;BME280;34776;48.180;16.420;2023-04-27T12:00:07;100111.16;;;19.54;25.19
48964;BME280;34776;48.180;16.420;2023-04-27T12:02:36;100107.50;;;19.55;25.21
48964;BME280;34776;48.180;16.420;2023-04-27T12:05:03;100095.44;;;19.71;25.61
48964;BME280;34776;48.180;16.420;2023-04-27T12:07:29;100093.47;;;19.73;25.51
48964;BME280;34776;48.180;16.420;2023-04-27T12:09:55;100097.72;;;19.96;25.22
48964;BME280;34776;48.180;16.420;2023-04-27T12:12:21;100094.34;;;20.25;25.38
48964;BME280;34776;48.180;16.420;2023-04-27T12:14:50;100087.44;;;20.63;24.08
48964;BME280;34776;48.180;16.420;2023-04-27T12:17:16;100098.75;;;20.57;24.18
48964;BME280;34776;48.180;16.420;2023-04-27T12:19:42;100090.47;;;20.48;24.22
48964;BME280;34776;48.180;16.420;2023-04-27T12:22:07;100083.50;;;20.67;24.44
48964;BME280;34776;48.180;16.420;2023-04-27T12:24:33;100091.66;;;20.56;24.54
48964;BME280;34776;48.180;16.420;2023-04-27T12:27:00;100087.03;;;20.67;24.13
48964;BME280;34776;48.180;16.420;2023-04-27T12:29:27;100084.72;;;20.32;24.27
48964;BME280;34776;48.180;16.420;2023-04-27T12:31:52;100089.22;;;20.22;24.33
48964;BME280;34776;48.180;16.420;2023-04-27T12:34:18;100084.28;;;20.27;24.39
48964;BME280;34776;48.180;16.420;2023-04-27T12:36:43;100081.94;;;20.43;24.38
48964;BME280;34776;48.180;16.420;2023-04-27T12:39:14;100079.22;;;20.64;24.17
48964;BME280;34776;48.180;16.420;2023-04-27T12:41:42;100065.84;;;20.63;24.40
48964;BME280;34776;48.180;16.420;2023-04-27T12:44:07;100070.41;;;20.72;24.29
48964;BME280;34776;48.180;16.420;2023-04-27T12:46:32;100065.91;;;20.82;24.39
48964;BME280;34776;48.180;16.420;2023-04-27T12:48:58;100059.69;;;21.01;24.28
48964;BME280;34776;48.180;16.420;2023-04-27T12:51:24;100059.13;;;21.17;23.82
48964;BME280;34776;48.180;16.420;2023-04-27T12:53:53;100066.63;;;21.04;24.01
48964;BME280;34776;48.180;16.420;2023-04-27T12:56:18;100057.41;;;21.16;23.74
48964;BME280;34776;48.180;16.420;2023-04-27T12:58:43;100049.47;;;21.15;23.83
48964;BME280;34776;48.180;16.420;2023-04-27T13:01:09;100053.44;;;21.20;23.48
48964;BME280;34776;48.180;16.420;2023-04-27T13:03:40;100055.97;;;20.93;23.69
48964;BME280;34776;48.180;16.420;2023-04-27T13:06:06;100055.09;;;20.82;23.99
48964;BME280;34776;48.180;16.420;2023-04-27T13:16:22;100067.38;;;20.25;24.07
48964;BME280;34776;48.180;16.420;2023-04-27T13:18:49;100067.38;;;20.25;24.38
48964;BME280;34776;48.180;16.420;2023-04-27T13:21:16;100056.84;;;20.22;24.22
48964;BME280;34776;48.180;16.420;2023-04-27T13:23:42;100055.03;;;20.32;24.43
48964;BME280;34776;48.180;16.420;2023-04-27T13:26:07;100057.25;;;20.17;24.35
48964;BME280;34776;48.180;16.420;2023-04-27T13:28:32;100059.31;;;20.04;24.44
48964;BME280;34776;48.180;16.420;2023-04-27T13:30:58;100056.47;;;19.63;24.57
48964;BME280;34776;48.180;16.420;2023-04-27T13:33:23;100059.22;;;19.84;24.68
48964;BME280;34776;48.180;16.420;2023-04-27T13:35:50;100060.47;;;19.69;24.70
48964;BME280;34776;48.180;16.420;2023-04-27T13:38:15;100059.63;;;19.68;24.87
48964;BME280;34776;48.180;16.420;2023-04-27T13:40:41;100054.38;;;19.88;24.37
48964;BME280;34776;48.180;16.420;2023-04-27T13:43:06;100060.34;;;20.13;23.66